sensor_id;sensor_type;location;lat;lon;timestamp;pressure;altitude;pressure_sealevel;temperature;humidity
4836;BME280;2432;51.226;6.904;2022-08-19T00:01:58;100592.91;;;19.36;100.00
4836;BME280;2432;51.226;6.904;2022-08-19T00:04:32;100592.47;;;19.28;100.00
4836;BME280;2432;51.226;6.904;2022-08-19T00:07:00;100596.69;;;19.16;100.00
4836;BME280;2432;51.226;6.904;2022-08-19T00:09:27;100600.63;;;19.09;100.00
4836;BME280;2432;51.226;6.904;2022-08-19T00:11:55;100596.53;;;19.03;100.00
4836;BME280;2432;51.226;6.904;2022-08-19T00:14:23;100594.31;;;18.96;100.00
4836;BME280;2432;51.226;6.904;2022-08-19T00:16:51;100596.25;;;18.92;100.00
4836;BME280;2432;51.226;6.904;2022-08-19T00:19:21;100596.13;;;18.95;100.00
4836;BME280;2432;51.226;6.904;2022-08-19T00:21:49;100596.13;;;18.95;100.00
4836;BME280;2432;51.226;6.904;2022-08-19T00:24:16;100585.50;;;18.95;100.00
4836;BME280;2432;51.226;6.904;2022-08-19T00:26:43;100591.22;;;19.03;100.00
4836;BME280;2432;51.226;6.904;2022-08-19T00:29:14;100591.28;;;19.02;100.00
4836;BME280;2432;51.226;6.904;2022-08-19T00:31:41;100597.91;;;18.95;100.00
4836;BME280;2432;51.226;6.904;2022-08-19T00:34:10;100594.13;;;18.83;100.00
4836;BME280;2432;51.226;6.904;2022-08-19T00:36:38;100592.72;;;18.76;100.00
4836;BME280;2432;51.226;6.904;2022-08-19T00:39:05;100584.53;;;18.80;100.00
4836;BME280;2432;51.226;6.904;2022-08-19T00:41:32;100589.66;;;18.83;100.00
4836;BME280;2432;51.226;6.904;2022-08-19T00:44:03;100591.31;;;18.86;100.00
4836;BME280;2432;51.226;6.904;2022-08-19T00:46:31;100601.94;;;18.86;100.00
4836;BME280;2432;51.226;6.904;2022-08-19T00:49:00;100585.31;;;18.82;100.00
4836;BME280;2432;51.226;6.904;2022-08-19T00:51:30;100594.53;;;18.75;100.00
4836;BME280;2432;51.226;6.904;2022-08-19T00:53:58;100595.91;;;18.82;100.00
4836;BME280;2432;51.226;6.904;2022-08-19T00:56:27;100594.53;;;18.75;100.00
4836;BME280;2432;51.226;6.904;2022-08-19T00:58:56;100577.47;;;18.63;100.00
4836;BME280;2432;51.226;6.904;2022-08-19T01:01:25;100582.84;;;18.62;100.00
4836;BME280;2432;51.226;6.904;2022-08-19T01:03:51;100589.88;;;18.63;100.00
4836;BME280;2432;51.226;6.904;2022-08-19T01:06:24;100589.78;;;18.64;100.00
4836;BME280;2432;51.226;6.904;2022-08-19T01:08:51;100593.31;;;18.65;100.00
4836;BME280;2432;51.226;6.904;2022-08-19T01:11:18;100596.59;;;18.70;100.00
4836;BME280;2432;51.226;6.904;2022-08-19T01:13:45;100588.63;;;18.70;100.00
4836;BME280;2432;51.226;6.904;2022-08-19T01:16:16;100599.06;;;18.73;100.00
4836;BME280;2432;51.226;6.904;2022-08-19T01:18:44;100586.59;;;18.58;100.00
4836;BME280;2432;51.226;6.904;2022-08-19T01:21:25;100593.09;;;18.52;100.00
4836;BME280;2432;51.226;6.904;2022-08-19T01:23:53;100595.75;;;18.52;100.00
4836;BME280;2432;51.226;6.904;2022-08-19T01:26:23;100584.97;;;18.55;100.00
4836;BME280;2432;51.226;6.904;2022-08-19T01:28:55;100587.72;;;18.54;100.00
4836;BME280;2432;51.226;6.904;2022-08-19T01:31:29;100593.44;;;18.46;100.00
4836;BME280;2432;51.226;6.904;2022-08-19T01:34:00;100587.44;;;18.43;100.00
4836;BME280;2432;51.226;6.904;2022-08-19T01:36:31;100585.88;;;18.39;100.00
4836;BME280;2432;51.226;6.904;2022-08-19T01:38:59;100575.44;;;18.35;100.00
4836;BME280;2432;51.226;6.904;2022-08-19T01:41:26;100580.88;;;18.32;100.00
4836;BME280;2432;51.226;6.904;2022-08-19T01:43:53;100588.25;;;18.27;100.00
4836;BME280;2432;51.226;6.904;2022-08-19T01:46:40;100578.22;;;18.32;100.00
4836;BME280;2432;51.226;6.904;2022-08-19T01:49:07;100579.72;;;18.38;100.00
4836;BME280;2432;51.226;6.904;2022-08-19T01:51:35;100591.19;;;18.39;100.00
4836;BME280;2432;51.226;6.904;2022-08-19T01:54:06;100580.97;;;18.31;100.00
4836;BME280;2432;51.226;6.904;2022-08-19T01:56:33;100581.91;;;18.30;100.00
4836;BME280;2432;51.226;6.904;2022-08-19T01:59:02;100577.31;;;18.33;100.00
4836;BME280;2432;51.226;6.904;2022-08-19T02:01:30;100568.84;;;18.27;100.00
4836;BME280;2432;51.226;6.904;2022-08-19T02:03:58;100575.47;;;18.18;100.00
4836;BME280;2432;51.226;6.904;2022-08-19T02:06:27;100572.06;;;18.16;100.00
4836;BME280;2432;51.226;6.904;2022-08-19T02:08:55;100572.59;;;18.05;100.00
4836;BME280;2432;51.226;6.904;2022-08-19T02:11:29;100568.50;;;18.00;100.00
4836;BME280;2432;51.226;6.904;2022-08-19T02:13:58;100565.84;;;18.00;100.00
4836;BME280;2432;51.226;6.904;2022-08-19T02:16:25;100568.63;;;17.97;100.00
4836;BME280;2432;51.226;6.904;2022-08-19T02:18:52;100574.94;;;17.94;100.00
4836;BME280;2432;51.226;6.904;2022-08-19T02:21:20;100578.22;;;17.99;100.00
4836;BME280;2432;51.226;6.904;2022-08-19T02:23:48;100573.44;;;18.06;100.00
4836;BME280;2432;51.226;6.904;2022-08-19T02:26:15;100584.00;;;18.07;100.00
4836;BME280;2432;51.226;6.904;2022-08-19T02:28:42;100581.34;;;18.07;100.00
4836;BME280;2432;51.226;6.904;2022-08-19T02:31:14;100579.56;;;18.08;100.00
4836;BME280;2432;51.226;6.904;2022-08-19T02:33:44;100570.75;;;18.07;100.00
4836;BME280;2432;51.226;6.904;2022-08-19T02:36:13;100569.94;;;18.05;100.00
4836;BME280;2432;51.226;6.904;2022-08-19T02:38:41;100577.03;;;18.05;100.00
4836;BME280;2432;51.226;6.904;2022-08-19T02:41:18;100584.22;;;18.03;100.00
4836;BME280;2432;51.226;6.904;2022-08-19T02:43:45;100584.53;;;17.97;100.00
4836;BME280;2432;51.226;6.904;2022-08-19T02:46:33;100593.41;;;17.96;100.00
4836;BME280;2432;51.226;6.904;2022-08-19T02:49:03;100601.69;;;17.90;100.00
4836;BME280;2432;51.226;6.904;2022-08-19T02:51:36;100603.63;;;17.86;100.00
4836;BME280;2432;51.226;6.904;2022-08-19T02:54:05;100603.63;;;17.86;100.00
4836;BME280;2432;51.226;6.904;2022-08-19T02:56:34;100602.78;;;17.86;100.00
4836;BME280;2432;51.226;6.904;2022-08-19T02:59:00;100611.03;;;17.79;100.00
4836;BME280;2432;51.226;6.904;2022-08-19T03:01:31;100603.94;;;17.80;100.00
4836;BME280;2432;51.226;6.904;2022-08-19T03:04:00;100607.00;;;17.72;100.00
4836;BME280;2432;51.226;6.904;2022-08-19T03:06:28;100601.69;;;17.72;100.00
4836;BME280;2432;51.226;6.904;2022-08-19T03:08:55;100596.75;;;17.65;100.00
4836;BME280;2432;51.226;6.904;2022-08-19T03:11:25;100591.38;;;17.66;100.00
4836;BME280;2432;51.226;6.904;2022-08-19T03:13:53;100599.69;;;17.59;100.00
4836;BME280;2432;51.226;6.904;2022-08-19T03:16:22;100596.88;;;17.62;100.00
4836;BME280;2432;51.226;6.904;2022-08-19T03:18:50;100598.66;;;17.61;100.00
4836;BME280;2432;51.226;6.904;2022-08-19T03:21:19;100602.81;;;17.67;100.00
4836;BME280;2432;51.226;6.904;2022-08-19T03:23:46;100601.78;;;17.69;100.00
4836;BME280;2432;51.226;6.904;2022-08-19T03:26:13;100593.28;;;17.63;100.00
4836;BME280;2432;51.226;6.904;2022-08-19T03:28:44;100597.59;;;17.65;100.00
4836;BME280;2432;51.226;6.904;2022-08-19T03:31:21;100595.09;;;17.62;100.00
4836;BME280;2432;51.226;6.904;2022-08-19T03:34:10;100595.81;;;17.66;100.00
4836;BME280;2432;51.226;6.904;2022-08-19T03:36:39;100589.66;;;17.65;100.00
4836;BME280;2432;51.226;6.904;2022-08-19T03:39:06;100597.50;;;17.67;100.00
4836;BME280;2432;51.226;6.904;2022-08-19T03:41:37;100605.69;;;17.62;100.00
4836;BME280;2432;51.226;6.904;2022-08-19T03:44:17;100598.66;;;17.61;100.00
4836;BME280;2432;51.226;6.904;2022-08-19T03:47:04;100605.28;;;17.52;100.00
4836;BME280;2432;51.226;6.904;2022-08-19T03:49:32;100608.16;;;17.48;100.00
4836;BME280;2432;51.226;6.904;2022-08-19T03:52:02;100602.06;;;17.46;100.00
4836;BME280;2432;51.226;6.904;2022-08-19T03:54:31;100608.25;;;17.46;100.00
4836;BME280;2432;51.226;6.904;2022-08-19T03:56:57;100612.28;;;17.53;100.00
4836;BME280;2432;51.226;6.904;2022-08-19T03:59:27;100619.84;;;17.61;100.00
4836;BME280;2432;51.226;6.904;2022-08-19T04:01:59;100612.56;;;17.66;100.00
4836;BME280;2432;51.226;6.904;2022-08-19T04:04:26;100616.66;;;17.73;100.00
4836;BME280;2432;51.226;6.904;2022-08-19T04:06:55;100616.56;;;17.75;100.00
4836;BME280;2432;51.226;6.904;2022-08-19T04:09:22;100614.59;;;17.78;100.00
4836;BME280;2432;51.226;6.904;2022-08-19T04:11:51;100618.66;;;17.86;100.00
4836;BME280;2432;51.226;6.904;2022-08-19T04:14:25;100623.97;;;17.86;100.00
4836;BME280;2432;51.226;6.904;2022-08-19T04:16:52;100614.06;;;17.89;100.00
4836;BME280;2432;51.226;6.904;2022-08-19T04:19:19;100612.13;;;17.75;100.00
4836;BME280;2432;51.226;6.904;2022-08-19T04:21:48;100607.38;;;17.63;100.00
4836;BME280;2432;51.226;6.904;2022-08-19T04:24:16;100614.63;;;17.60;100.00
4836;BME280;2432;51.226;6.904;2022-08-19T04:26:43;100615.38;;;17.44;100.00
4836;BME280;2432;51.226;6.904;2022-08-19T04:29:14;100612.13;;;17.39;100.00
4836;BME280;2432;51.226;6.904;2022-08-19T04:31:42;100613.59;;;17.45;100.00
4836;BME280;2432;51.226;6.904;2022-08-19T04:34:15;100623.31;;;17.44;100.00
4836;BME280;2432;51.226;6.904;2022-08-19T04:36:44;100620.06;;;17.39;100.00
4836;BME280;2432;51.226;6.904;2022-08-19T04:39:15;100623.25;;;17.46;100.00
4836;BME280;2432;51.226;6.904;2022-08-19T04:41:42;100627.75;;;17.44;100.00
4836;BME280;2432;51.226;6.904;2022-08-19T04:44:28;100617.91;;;17.47;100.00
4836;BME280;2432;51.226;6.904;2022-08-19T04:46:59;100620.22;;;17.53;100.00
4836;BME280;2432;51.226;6.904;2022-08-19T04:49:27;100638.47;;;17.60;100.00
4836;BME280;2432;51.226;6.904;2022-08-19T04:51:54;100633.94;;;17.62;100.00
4836;BME280;2432;51.226;6.904;2022-08-19T04:54:23;100639.16;;;17.63;100.00
4836;BME280;2432;51.226;6.904;2022-08-19T04:57:07;100638.25;;;17.64;100.00
4836;BME280;2432;51.226;6.904;2022-08-19T04:59:35;100632.03;;;17.65;100.00
4836;BME280;2432;51.226;6.904;2022-08-19T05:02:04;100644.06;;;17.72;100.00
4836;BME280;2432;51.226;6.904;2022-08-19T05:04:30;100638.78;;;17.72;100.00
4836;BME280;2432;51.226;6.904;2022-08-19T05:06:59;100649.56;;;17.68;100.00
4836;BME280;2432;51.226;6.904;2022-08-19T05:09:29;100644.34;;;17.66;100.00
4836;BME280;2432;51.226;6.904;2022-08-19T05:12:17;100658.44;;;17.67;100.00
4836;BME280;2432;51.226;6.904;2022-08-19T05:14:44;100661.72;;;17.72;100.00
4836;BME280;2432;51.226;6.904;2022-08-19T05:17:12;100664.16;;;17.76;100.00
4836;BME280;2432;51.226;6.904;2022-08-19T05:19:59;100669.66;;;17.72;100.00
4836;BME280;2432;51.226;6.904;2022-08-19T05:22:45;100671.56;;;17.51;100.00
4836;BME280;2432;51.226;6.904;2022-08-19T05:25:17;100675.34;;;17.45;100.00
4836;BME280;2432;51.226;6.904;2022-08-19T05:27:48;100674.34;;;17.48;100.00
4836;BME280;2432;51.226;6.904;2022-08-19T05:30:15;100671.72;;;17.48;100.00
4836;BME280;2432;51.226;6.904;2022-08-19T05:32:42;100682.78;;;17.56;100.00
4836;BME280;2432;51.226;6.904;2022-08-19T05:35:09;100680.69;;;17.63;100.00
4836;BME280;2432;51.226;6.904;2022-08-19T05:37:37;100678.69;;;17.68;100.00
4836;BME280;2432;51.226;6.904;2022-08-19T05:40:08;100681.84;;;17.76;100.00
4836;BME280;2432;51.226;6.904;2022-08-19T05:42:35;100671.41;;;17.73;100.00
4836;BME280;2432;51.226;6.904;2022-08-19T05:45:02;100674.84;;;17.75;100.00
4836;BME280;2432;51.226;6.904;2022-08-19T05:47:29;100678.19;;;17.78;100.00
4836;BME280;2432;51.226;6.904;2022-08-19T05:49:55;100679.91;;;17.79;100.00
4836;BME280;2432;51.226;6.904;2022-08-19T05:52:22;100670.09;;;17.82;100.00
4836;BME280;2432;51.226;6.904;2022-08-19T05:54:52;100669.09;;;17.84;100.00
4836;BME280;2432;51.226;6.904;2022-08-19T05:57:21;100671.50;;;17.89;100.00
4836;BME280;2432;51.226;6.904;2022-08-19T05:59:48;100667.78;;;17.93;100.00
4836;BME280;2432;51.226;6.904;2022-08-19T06:02:23;100664.97;;;17.96;100.00
4836;BME280;2432;51.226;6.904;2022-08-19T06:04:49;100671.91;;;17.98;100.00
4836;BME280;2432;51.226;6.904;2022-08-19T06:07:16;100667.31;;;18.02;100.00
4836;BME280;2432;51.226;6.904;2022-08-19T06:09:43;100670.59;;;18.07;100.00
4836;BME280;2432;51.226;6.904;2022-08-19T06:12:31;100679.94;;;18.14;100.00
4836;BME280;2432;51.226;6.904;2022-08-19T06:15:10;100671.84;;;18.17;100.00
4836;BME280;2432;51.226;6.904;2022-08-19T06:17:37;100679.63;;;18.20;100.00
4836;BME280;2432;51.226;6.904;2022-08-19T06:20:09;100682.09;;;18.23;100.00
4836;BME280;2432;51.226;6.904;2022-08-19T06:22:42;100676.59;;;18.28;100.00
4836;BME280;2432;51.226;6.904;2022-08-19T06:25:10;100673.69;;;18.32;100.00
4836;BME280;2432;51.226;6.904;2022-08-19T06:27:37;100662.84;;;18.37;100.00
4836;BME280;2432;51.226;6.904;2022-08-19T06:30:23;100660.84;;;18.42;100.00
4836;BME280;2432;51.226;6.904;2022-08-19T06:32:50;100665.97;;;18.45;100.00
4836;BME280;2432;51.226;6.904;2022-08-19T06:35:18;100669.31;;;18.49;100.00
4836;BME280;2432;51.226;6.904;2022-08-19T06:37:45;100666.56;;;18.50;100.00
4836;BME280;2432;51.226;6.904;2022-08-19T06:40:11;100671.72;;;18.53;100.00
4836;BME280;2432;51.226;6.904;2022-08-19T06:42:39;100671.66;;;18.55;100.00
4836;BME280;2432;51.226;6.904;2022-08-19T06:45:19;100669.75;;;18.57;100.00
4836;BME280;2432;51.226;6.904;2022-08-19T06:47:50;100670.63;;;18.57;100.00
4836;BME280;2432;51.226;6.904;2022-08-19T06:50:20;100665.31;;;18.57;100.00
4836;BME280;2432;51.226;6.904;2022-08-19T06:52:50;100664.31;;;18.60;100.00
4836;BME280;2432;51.226;6.904;2022-08-19T06:55:18;100667.88;;;18.59;100.00
4836;BME280;2432;51.226;6.904;2022-08-19T06:57:45;100667.88;;;18.59;100.00
4836;BME280;2432;51.226;6.904;2022-08-19T07:00:12;100669.63;;;18.60;100.00
4836;BME280;2432;51.226;6.904;2022-08-19T07:02:41;100670.47;;;18.60;100.00
4836;BME280;2432;51.226;6.904;2022-08-19T07:05:21;100678.84;;;18.70;100.00
4836;BME280;2432;51.226;6.904;2022-08-19T07:07:47;100672.59;;;18.71;100.00
4836;BME280;2432;51.226;6.904;2022-08-19T07:10:16;100669.94;;;18.71;100.00
4836;BME280;2432;51.226;6.904;2022-08-19T07:12:43;100676.94;;;18.72;100.00
4836;BME280;2432;51.226;6.904;2022-08-19T07:15:11;100676.00;;;18.73;100.00
4836;BME280;2432;51.226;6.904;2022-08-19T07:17:38;100683.13;;;18.73;100.00
4836;BME280;2432;51.226;6.904;2022-08-19T07:20:07;100690.97;;;18.74;100.00
4836;BME280;2432;51.226;6.904;2022-08-19T07:22:37;100689.09;;;18.76;100.00
4836;BME280;2432;51.226;6.904;2022-08-19T07:25:06;100692.63;;;18.77;100.00
4836;BME280;2432;51.226;6.904;2022-08-19T07:27:33;100696.16;;;18.77;100.00
4836;BME280;2432;51.226;6.904;2022-08-19T07:30:00;100699.56;;;18.79;100.00
4836;BME280;2432;51.226;6.904;2022-08-19T07:32:27;100710.00;;;18.82;100.00
4836;BME280;2432;51.226;6.904;2022-08-19T07:34:54;100708.97;;;18.85;100.00
4836;BME280;2432;51.226;6.904;2022-08-19T07:37:22;100708.06;;;18.86;100.00
4836;BME280;2432;51.226;6.904;2022-08-19T07:39:49;100710.78;;;18.84;100.00
4836;BME280;2432;51.226;6.904;2022-08-19T07:42:15;100708.94;;;18.86;100.00
4836;BME280;2432;51.226;6.904;2022-08-19T07:44:44;100721.25;;;18.87;100.00
4836;BME280;2432;51.226;6.904;2022-08-19T07:47:16;100726.38;;;18.90;100.00
4836;BME280;2432;51.226;6.904;2022-08-19T07:50:06;100720.91;;;18.93;100.00
4836;BME280;2432;51.226;6.904;2022-08-19T07:52:34;100738.41;;;18.98;100.00
4836;BME280;2432;51.226;6.904;2022-08-19T07:55:03;100745.50;;;18.97;100.00
4836;BME280;2432;51.226;6.904;2022-08-19T07:57:30;100744.56;;;18.98;100.00
4836;BME280;2432;51.226;6.904;2022-08-19T07:59:58;100748.84;;;19.01;100.00
4836;BME280;2432;51.226;6.904;2022-08-19T08:02:25;100744.16;;;19.06;100.00
4836;BME280;2432;51.226;6.904;2022-08-19T08:04:51;100748.34;;;19.10;100.00
4836;BME280;2432;51.226;6.904;2022-08-19T08:07:37;100750.78;;;19.14;100.00
4836;BME280;2432;51.226;6.904;2022-08-19T08:10:21;100749.66;;;19.18;100.00
4836;BME280;2432;51.226;6.904;2022-08-19T08:12:50;100741.38;;;19.25;100.00
4836;BME280;2432;51.226;6.904;2022-08-19T08:15:37;100745.63;;;19.27;100.00
4836;BME280;2432;51.226;6.904;2022-08-19T08:18:08;100744.53;;;19.31;100.00
4836;BME280;2432;51.226;6.904;2022-08-19T08:20:35;100749.53;;;19.37;100.00
4836;BME280;2432;51.226;6.904;2022-08-19T08:23:02;100747.47;;;19.42;100.00
4836;BME280;2432;51.226;6.904;2022-08-19T08:25:47;100741.72;;;19.50;100.00
4836;BME280;2432;51.226;6.904;2022-08-19T08:28:16;100745.06;;;19.54;100.00
4836;BME280;2432;51.226;6.904;2022-08-19T08:30:44;100742.78;;;19.63;100.00
4836;BME280;2432;51.226;6.904;2022-08-19T08:33:13;100748.63;;;19.70;100.00
4836;BME280;2432;51.226;6.904;2022-08-19T08:35:45;100750.00;;;19.77;100.00
4836;BME280;2432;51.226;6.904;2022-08-19T08:38:11;100746.16;;;19.83;100.00
4836;BME280;2432;51.226;6.904;2022-08-19T08:46:07;100742.25;;;20.04;100.00
4836;BME280;2432;51.226;6.904;2022-08-19T08:48:49;100746.38;;;20.10;100.00
4836;BME280;2432;51.226;6.904;2022-08-19T08:51:26;100746.69;;;20.19;100.00
4836;BME280;2432;51.226;6.904;2022-08-19T08:54:02;100752.13;;;20.32;100.00
4836;BME280;2432;51.226;6.904;2022-08-19T08:56:30;100748.00;;;20.42;100.00
4836;BME280;2432;51.226;6.904;2022-08-19T08:59:30;100744.34;;;20.45;100.00
4836;BME280;2432;51.226;6.904;2022-08-19T09:01:58;100733.50;;;20.48;100.00
4836;BME280;2432;51.226;6.904;2022-08-19T09:04:25;100729.03;;;20.48;100.00
4836;BME280;2432;51.226;6.904;2022-08-19T09:07:09;100729.28;;;20.59;100.00
4836;BME280;2432;51.226;6.904;2022-08-19T09:10:29;100734.50;;;20.75;100.00
4836;BME280;2432;51.226;6.904;2022-08-19T09:13:34;100736.78;;;20.81;100.00
4836;BME280;2432;51.226;6.904;2022-08-19T09:16:11;100731.19;;;20.86;100.00
4836;BME280;2432;51.226;6.904;2022-08-19T09:18:52;100733.28;;;20.81;100.00
4836;BME280;2432;51.226;6.904;2022-08-19T09:21:21;100734.63;;;20.88;100.00
4836;BME280;2432;51.226;6.904;2022-08-19T09:23:55;100735.38;;;20.90;100.00
4836;BME280;2432;51.226;6.904;2022-08-19T09:26:25;100743.25;;;20.92;100.00
4836;BME280;2432;51.226;6.904;2022-08-19T09:29:13;100743.34;;;20.90;100.00
4836;BME280;2432;51.226;6.904;2022-08-19T09:31:39;100744.31;;;20.89;100.00
4836;BME280;2432;51.226;6.904;2022-08-19T09:34:06;100734.41;;;20.91;100.00
4836;BME280;2432;51.226;6.904;2022-08-19T09:36:47;100739.38;;;20.97;100.00
4836;BME280;2432;51.226;6.904;2022-08-19T09:39:16;100736.34;;;21.03;100.00
4836;BME280;2432;51.226;6.904;2022-08-19T09:41:43;100736.72;;;21.11;99.48
4836;BME280;2432;51.226;6.904;2022-08-19T09:44:14;100731.41;;;21.11;99.67
4836;BME280;2432;51.226;6.904;2022-08-19T09:46:41;100731.66;;;21.07;99.33
4836;BME280;2432;51.226;6.904;2022-08-19T09:49:07;100736.72;;;21.11;99.73
4836;BME280;2432;51.226;6.904;2022-08-19T09:51:34;100723.75;;;21.20;97.54
4836;BME280;2432;51.226;6.904;2022-08-19T09:54:02;100727.97;;;21.24;98.23
4836;BME280;2432;51.226;6.904;2022-08-19T09:56:30;100723.03;;;21.46;93.81
4836;BME280;2432;51.226;6.904;2022-08-19T09:58:59;100728.16;;;21.49;93.31
4836;BME280;2432;51.226;6.904;2022-08-19T10:01:28;100732.56;;;21.63;92.96
4836;BME280;2432;51.226;6.904;2022-08-19T10:03:56;100729.66;;;21.53;91.71
4836;BME280;2432;51.226;6.904;2022-08-19T10:06:25;100738.78;;;21.63;91.05
4836;BME280;2432;51.226;6.904;2022-08-19T10:09:11;100736.13;;;21.63;91.68
4836;BME280;2432;51.226;6.904;2022-08-19T10:11:44;100742.56;;;21.73;88.94
4836;BME280;2432;51.226;6.904;2022-08-19T10:14:20;100744.31;;;21.87;87.80
4836;BME280;2432;51.226;6.904;2022-08-19T10:16:49;100737.84;;;21.91;88.44
4836;BME280;2432;51.226;6.904;2022-08-19T10:19:18;100736.13;;;21.90;88.30
4836;BME280;2432;51.226;6.904;2022-08-19T10:21:52;100728.03;;;21.92;90.00
4836;BME280;2432;51.226;6.904;2022-08-19T10:24:18;100727.22;;;22.04;89.26
4836;BME280;2432;51.226;6.904;2022-08-19T10:26:47;100726.09;;;22.08;89.47
4836;BME280;2432;51.226;6.904;2022-08-19T10:29:24;100710.44;;;22.16;89.10
4836;BME280;2432;51.226;6.904;2022-08-19T10:31:59;100711.72;;;22.23;90.06
4836;BME280;2432;51.226;6.904;2022-08-19T10:34:29;100709.91;;;22.24;89.53
4836;BME280;2432;51.226;6.904;2022-08-19T10:36:57;100718.34;;;22.31;89.24
4836;BME280;2432;51.226;6.904;2022-08-19T10:39:28;100712.78;;;22.21;89.02
4836;BME280;2432;51.226;6.904;2022-08-19T10:41:56;100712.16;;;22.17;90.52
4836;BME280;2432;51.226;6.904;2022-08-19T10:44:23;100706.81;;;22.17;90.69
4836;BME280;2432;51.226;6.904;2022-08-19T10:46:57;100714.75;;;22.44;88.91
4836;BME280;2432;51.226;6.904;2022-08-19T10:49:25;100708.56;;;22.56;88.26
4836;BME280;2432;51.226;6.904;2022-08-19T10:51:53;100720.53;;;22.51;88.60
4836;BME280;2432;51.226;6.904;2022-08-19T10:54:44;100723.72;;;22.43;86.02
4836;BME280;2432;51.226;6.904;2022-08-19T10:57:33;100722.09;;;22.41;86.60
4836;BME280;2432;51.226;6.904;2022-08-19T11:00:21;100727.53;;;22.39;87.32
4836;BME280;2432;51.226;6.904;2022-08-19T11:02:49;100723.50;;;22.34;88.41
4836;BME280;2432;51.226;6.904;2022-08-19T11:05:15;100715.06;;;22.40;87.61
4836;BME280;2432;51.226;6.904;2022-08-19T11:07:44;100719.88;;;22.47;88.87
4836;BME280;2432;51.226;6.904;2022-08-19T11:10:13;100708.78;;;22.53;86.35
4836;BME280;2432;51.226;6.904;2022-08-19T11:12:46;100715.53;;;22.59;85.73
4836;BME280;2432;51.226;6.904;2022-08-19T11:15:13;100714.75;;;22.57;85.73
4836;BME280;2432;51.226;6.904;2022-08-19T11:17:40;100708.38;;;22.60;85.88
4836;BME280;2432;51.226;6.904;2022-08-19T11:20:11;100701.44;;;22.70;83.04
4836;BME280;2432;51.226;6.904;2022-08-19T11:22:38;100713.94;;;22.69;82.75
4836;BME280;2432;51.226;6.904;2022-08-19T11:25:08;100705.91;;;22.69;82.05
4836;BME280;2432;51.226;6.904;2022-08-19T11:27:40;100703.44;;;22.66;82.21
4836;BME280;2432;51.226;6.904;2022-08-19T11:30:12;100709.22;;;22.60;83.14
4836;BME280;2432;51.226;6.904;2022-08-19T11:32:41;100715.59;;;22.57;81.04
4836;BME280;2432;51.226;6.904;2022-08-19T11:35:14;100710.72;;;22.51;83.29
4836;BME280;2432;51.226;6.904;2022-08-19T11:37:42;100710.91;;;22.48;83.47
4836;BME280;2432;51.226;6.904;2022-08-19T11:40:09;100701.00;;;22.63;81.54
4836;BME280;2432;51.226;6.904;2022-08-19T11:42:36;100697.38;;;22.77;79.88
4836;BME280;2432;51.226;6.904;2022-08-19T11:45:27;100695.34;;;22.80;79.71
4836;BME280;2432;51.226;6.904;2022-08-19T11:47:54;100694.41;;;22.94;79.38
4836;BME280;2432;51.226;6.904;2022-08-19T11:50:22;100693.94;;;23.13;75.94
4836;BME280;2432;51.226;6.904;2022-08-19T11:52:49;100685.94;;;23.13;77.31
4836;BME280;2432;51.226;6.904;2022-08-19T11:55:17;100686.13;;;23.23;77.88
4836;BME280;2432;51.226;6.904;2022-08-19T11:57:43;100690.56;;;23.35;75.90
4836;BME280;2432;51.226;6.904;2022-08-19T12:00:10;100688.88;;;23.34;76.19
4836;BME280;2432;51.226;6.904;2022-08-19T12:02:39;100687.47;;;23.41;75.87
4836;BME280;2432;51.226;6.904;2022-08-19T12:05:06;100692.38;;;23.47;75.62
4836;BME280;2432;51.226;6.904;2022-08-19T12:07:38;100689.56;;;23.49;74.39
4836;BME280;2432;51.226;6.904;2022-08-19T12:10:06;100686.91;;;23.49;75.56
4836;BME280;2432;51.226;6.904;2022-08-19T12:12:33;100690.88;;;23.43;74.80
4836;BME280;2432;51.226;6.904;2022-08-19T12:15:00;100680.72;;;23.35;76.17
4836;BME280;2432;51.226;6.904;2022-08-19T12:17:26;100677.63;;;23.41;74.92
4836;BME280;2432;51.226;6.904;2022-08-19T12:19:53;100670.88;;;23.49;76.43
4836;BME280;2432;51.226;6.904;2022-08-19T12:22:20;100673.28;;;23.88;71.90
4836;BME280;2432;51.226;6.904;2022-08-19T12:24:47;100671.91;;;24.07;68.33
4836;BME280;2432;51.226;6.904;2022-08-19T12:27:17;100673.63;;;24.08;67.81
4836;BME280;2432;51.226;6.904;2022-08-19T12:30:05;100674.59;;;23.83;68.59
4836;BME280;2432;51.226;6.904;2022-08-19T12:32:32;100674.19;;;24.00;67.93
4836;BME280;2432;51.226;6.904;2022-08-19T12:34:58;100671.06;;;24.41;66.31
4836;BME280;2432;51.226;6.904;2022-08-19T12:37:25;100672.44;;;24.69;63.65
4836;BME280;2432;51.226;6.904;2022-08-19T12:39:52;100661.84;;;24.90;59.28
4836;BME280;2432;51.226;6.904;2022-08-19T12:42:18;100660.88;;;25.25;58.98
4836;BME280;2432;51.226;6.904;2022-08-19T12:44:45;100672.47;;;25.69;58.56
4836;BME280;2432;51.226;6.904;2022-08-19T12:47:13;100663.31;;;25.17;58.01
4836;BME280;2432;51.226;6.904;2022-08-19T12:49:40;100670.38;;;25.29;58.64
4836;BME280;2432;51.226;6.904;2022-08-19T12:52:22;100665.91;;;25.61;60.67
4836;BME280;2432;51.226;6.904;2022-08-19T12:54:50;100667.69;;;25.18;58.87
4836;BME280;2432;51.226;6.904;2022-08-19T12:57:21;100664.03;;;24.96;60.59
4836;BME280;2432;51.226;6.904;2022-08-19T13:00:08;100658.06;;;24.59;60.57
4836;BME280;2432;51.226;6.904;2022-08-19T13:02:41;100657.97;;;24.94;59.79
4836;BME280;2432;51.226;6.904;2022-08-19T13:05:13;100659.56;;;25.74;57.86
4836;BME280;2432;51.226;6.904;2022-08-19T13:07:42;100648.63;;;25.98;55.70
4836;BME280;2432;51.226;6.904;2022-08-19T13:10:12;100646.38;;;26.24;53.59
4836;BME280;2432;51.226;6.904;2022-08-19T13:12:39;100650.53;;;26.48;54.78
4836;BME280;2432;51.226;6.904;2022-08-19T13:15:07;100654.84;;;26.40;54.09
4836;BME280;2432;51.226;6.904;2022-08-19T13:17:37;100649.28;;;26.53;55.23
4836;BME280;2432;51.226;6.904;2022-08-19T13:20:05;100639.72;;;26.39;54.30
4836;BME280;2432;51.226;6.904;2022-08-19T13:22:34;100651.59;;;25.83;55.07
4836;BME280;2432;51.226;6.904;2022-08-19T13:25:05;100639.09;;;26.14;54.50
4836;BME280;2432;51.226;6.904;2022-08-19T13:27:32;100634.59;;;26.57;56.10